Time,TemperatureF,DewpointF,PressureIn,WindDirection,WindDirectionDegrees,WindSpeedMPH,WindSpeedGustMPH,Humidity,HourlyPrecipIn,Conditions,Clouds,dailyrainin,SolarRadiationWatts/m^2,SoftwareType,DateUTC
2013-03-07 00:02:00,38.3,8.8,29.83,NW,324,11.0,24.0,29,0.00,,,0.00,0.0,meteohub,2013-03-07 07:02:00,
2013-03-07 00:07:00,38.1,9.5,29.82,NW,321,5.0,24.0,30,0.00,,,0.00,0.0,meteohub,2013-03-07 07:07:00,
2013-03-07 00:14:00,38.1,10.2,29.82,NW,310,13.0,24.0,31,0.00,,,0.00,0.0,meteohub,2013-03-07 07:14:00,
2013-03-07 00:19:00,38.1,10.2,29.81,NW,326,5.0,36.0,31,0.00,,,0.00,0.0,meteohub,2013-03-07 07:19:00,
2013-03-07 00:25:00,38.1,10.2,29.81,NW,314,12.0,36.0,31,0.00,,,0.00,0.0,meteohub,2013-03-07 07:25:00,
2013-03-07 00:30:00,38.1,10.2,29.81,NNW,347,12.0,25.0,31,0.00,,,0.00,0.0,meteohub,2013-03-07 07:30:00,
2013-03-07 00:35:00,38.5,10.4,29.81,North,-999,-999.0,25.0,31,0.00,,,0.00,0.0,meteohub,2013-03-07 07:35:00,
2013-03-07 00:40:00,38.5,10.4,29.81,NNW,334,6.0,25.0,31,0.00,,,0.00,0.0,meteohub,2013-03-07 07:40:00,
2013-03-07 00:46:00,38.5,10.4,29.81,NW,324,14.0,21.0,31,0.00,,,0.00,0.0,meteohub,2013-03-07 07:46:00,
2013-03-07 00:51:00,38.5,10.4,29.81,NNW,328,16.0,31.0,31,0.00,,,0.00,0.0,meteohub,2013-03-07 07:51:00,
2013-03-07 00:56:00,38.5,10.4,29.81,NW,324,16.0,31.0,31,0.00,,,0.00,0.0,meteohub,2013-03-07 07:56:00,
2013-03-07 01:01:00,38.5,10.4,29.80,NNE,16,11.0,27.0,31,0.00,,,0.00,0.0,meteohub,2013-03-07 08:01:00,
2013-03-07 01:07:00,38.5,10.4,29.80,WNW,283,9.0,27.0,31,0.00,,,0.00,0.0,meteohub,2013-03-07 08:07:00,
2013-03-07 01:12:00,38.7,9.9,29.80,NW,314,10.0,26.0,30,0.00,,,0.00,0.0,meteohub,2013-03-07 08:12:00,
2013-03-07 01:17:00,38.7,9.9,29.79,NNE,22,14.0,26.0,30,0.00,,,0.00,0.0,meteohub,2013-03-07 08:17:00,
2013-03-07 01:22:00,38.5,10.4,29.79,NW,314,12.0,26.0,31,0.00,,,0.00,0.0,meteohub,2013-03-07 08:22:00,
2013-03-07 01:28:00,38.7,10.6,29.79,NW,326,21.0,27.0,31,0.00,,,0.00,0.0,meteohub,2013-03-07 08:28:00,
2013-03-07 01:33:00,38.7,10.6,29.80,NNW,334,12.0,27.0,31,0.00,,,0.00,0.0,meteohub,2013-03-07 08:33:00,
2013-03-07 01:38:00,38.5,10.4,29.80,NW,313,20.0,27.0,31,0.00,,,0.00,0.0,meteohub,2013-03-07 08:38:00,
2013-03-07 01:44:00,38.5,10.4,29.80,NW,306,12.0,27.0,31,0.00,,,0.00,0.0,meteohub,2013-03-07 08:44:00,
2013-03-07 01:49:00,38.7,10.6,29.80,NW,311,18.0,27.0,31,0.00,,,0.00,0.0,meteohub,2013-03-07 08:49:00,
2013-03-07 01:54:00,38.7,10.6,29.79,North,350,11.0,27.0,31,0.00,,,0.00,0.0,meteohub,2013-03-07 08:54:00,
2013-03-07 01:59:00,38.7,10.6,29.79,North,350,11.0,24.0,31,0.00,,,0.00,0.0,meteohub,2013-03-07 08:59:00,
2013-03-07 02:05:00,38.8,10.0,29.78,NW,308,11.0,22.0,30,0.00,,,0.00,0.0,meteohub,2013-03-07 09:05:00,
2013-03-07 02:10:00,38.8,10.8,29.78,NW,324,9.0,25.0,31,0.00,,,0.00,0.0,meteohub,2013-03-07 09:10:00,
2013-03-07 02:15:00,38.8,10.8,29.78,WNW,302,10.0,30.0,31,0.00,,,0.00,0.0,meteohub,2013-03-07 09:15:00,
2013-03-07 02:21:00,39.0,10.9,29.78,NW,312,5.0,30.0,31,0.00,,,0.00,0.0,meteohub,2013-03-07 09:21:00,
2013-03-07 02:26:00,38.8,10.8,29.78,NW,325,16.0,30.0,31,0.00,,,0.00,0.0,meteohub,2013-03-07 09:26:00,
2013-03-07 02:31:00,38.8,10.8,29.78,NW,322,6.0,25.0,31,0.00,,,0.00,0.0,meteohub,2013-03-07 09:31:00,
2013-03-07 02:37:00,38.7,10.6,29.78,ENE,61,11.0,24.0,31,0.00,,,0.00,0.0,meteohub,2013-03-07 09:37:00,
2013-03-07 02:42:00,38.7,10.6,29.78,North,9,9.0,24.0,31,0.00,,,0.00,0.0,meteohub,2013-03-07 09:42:00,
2013-03-07 02:47:00,38.5,11.1,29.77,NE,39,12.0,22.0,32,0.00,,,0.00,0.0,meteohub,2013-03-07 09:47:00,
2013-03-07 02:52:00,38.5,11.1,29.77,WNW,301,8.0,27.0,32,0.00,,,0.00,0.0,meteohub,2013-03-07 09:52:00,
2013-03-07 02:58:00,38.7,11.3,29.78,NNW,334,19.0,27.0,32,0.00,,,0.00,0.0,meteohub,2013-03-07 09:58:00,
2013-03-07 03:03:00,38.7,11.3,29.78,North,10,6.0,27.0,32,0.00,,,0.00,0.0,meteohub,2013-03-07 10:03:00,
2013-03-07 03:08:00,38.7,11.3,29.77,North,2,8.0,21.0,32,0.00,,,0.00,0.0,meteohub,2013-03-07 10:08:00,
2013-03-07 03:14:00,38.7,11.3,29.77,NW,320,10.0,23.0,32,0.00,,,0.00,0.0,meteohub,2013-03-07 10:14:00,
2013-03-07 03:19:00,38.7,11.3,29.77,NW,314,27.0,27.0,32,0.00,,,0.00,0.0,meteohub,2013-03-07 10:19:00,
2013-03-07 03:24:00,38.7,11.3,29.78,NW,326,13.0,34.0,32,0.00,,,0.00,0.0,meteohub,2013-03-07 10:24:00,
2013-03-07 03:30:00,38.7,11.3,29.78,NNW,341,13.0,35.0,32,0.00,,,0.00,0.0,meteohub,2013-03-07 10:30:00,
2013-03-07 03:35:00,38.7,11.3,29.78,NW,322,22.0,24.0,32,0.00,,,0.00,0.0,meteohub,2013-03-07 10:35:00,
2013-03-07 03:40:00,38.7,11.3,29.79,North,355,4.0,33.0,32,0.00,,,0.00,0.0,meteohub,2013-03-07 10:40:00,
2013-03-07 03:46:00,38.5,11.1,29.79,NW,316,3.0,33.0,32,0.00,,,0.00,0.0,meteohub,2013-03-07 10:46:00,
2013-03-07 03:51:00,38.1,10.9,29.80,NW,310,2.0,33.0,32,0.00,,,0.00,0.0,meteohub,2013-03-07 10:51:00,
2013-03-07 03:57:00,38.1,10.2,29.81,NW,309,1.0,15.0,31,0.00,,,0.00,0.0,meteohub,2013-03-07 10:57:00,
2013-03-07 04:02:00,37.9,10.0,29.81,WNW,289,0.0,14.0,31,0.00,,,0.00,0.0,meteohub,2013-03-07 11:02:00,
2013-03-07 04:07:00,37.6,11.7,29.81,SW,218,0.0,21.0,34,0.00,,,0.00,0.0,meteohub,2013-03-07 11:07:00,
2013-03-07 04:13:00,37.0,10.6,29.81,WNW,291,3.0,21.0,33,0.00,,,0.00,0.0,meteohub,2013-03-07 11:13:00,
2013-03-07 04:18:00,37.2,10.0,29.81,WNW,289,1.0,10.0,32,0.00,,,0.00,0.0,meteohub,2013-03-07 11:18:00,
2013-03-07 04:23:00,36.9,11.1,29.81,WNW,289,1.0,10.0,34,0.00,,,0.00,0.0,meteohub,2013-03-07 11:23:00,
2013-03-07 04:28:00,36.1,10.4,29.81,WNW,289,1.0,10.0,34,0.00,,,0.00,0.0,meteohub,2013-03-07 11:28:00,
2013-03-07 04:34:00,35.8,10.2,29.81,WNW,289,1.0,4.0,34,0.00,,,0.00,0.0,meteohub,2013-03-07 11:34:00,
2013-03-07 04:39:00,35.8,10.8,29.81,WNW,289,2.0,7.0,35,0.00,,,0.00,0.0,meteohub,2013-03-07 11:39:00,
2013-03-07 04:44:00,35.6,10.6,29.81,WNW,289,4.0,7.0,35,0.00,,,0.00,0.0,meteohub,2013-03-07 11:44:00,
2013-03-07 04:50:00,35.2,10.4,29.81,WNW,289,0.0,7.0,35,0.00,,,0.00,0.0,meteohub,2013-03-07 11:50:00,
2013-03-07 04:55:00,35.2,10.4,29.81,WNW,295,1.0,7.0,35,0.00,,,0.00,0.0,meteohub,2013-03-07 11:55:00,
2013-03-07 05:00:00,35.1,10.8,29.81,WNW,284,0.0,8.0,36,0.00,,,0.00,0.0,meteohub,2013-03-07 12:00:00,
2013-03-07 05:06:00,34.9,10.0,29.81,WNW,284,5.0,8.0,35,0.00,,,0.00,0.0,meteohub,2013-03-07 12:06:00,
2013-03-07 05:11:00,35.2,10.4,29.81,WNW,284,0.0,6.0,35,0.00,,,0.00,0.0,meteohub,2013-03-07 12:11:00,
2013-03-07 05:16:00,35.4,10.4,29.81,WNW,284,0.0,6.0,35,0.00,,,0.00,0.0,meteohub,2013-03-07 12:16:00,
2013-03-07 05:22:00,35.1,11.5,29.81,WNW,284,0.0,6.0,37,0.00,,,0.00,0.0,meteohub,2013-03-07 12:22:00,
2013-03-07 05:27:00,34.2,11.1,29.81,WNW,284,5.0,6.0,38,0.00,,,0.00,0.0,meteohub,2013-03-07 12:27:00,
2013-03-07 05:32:00,33.6,10.8,29.81,WNW,284,0.0,5.0,38,0.00,,,0.00,0.0,meteohub,2013-03-07 12:32:00,
2013-03-07 05:37:00,33.3,10.4,29.81,WNW,284,0.0,6.0,38,0.00,,,0.00,0.0,meteohub,2013-03-07 12:37:00,
2013-03-07 05:43:00,34.7,10.4,29.81,WNW,299,0.0,10.0,36,0.00,,,0.00,0.0,meteohub,2013-03-07 12:43:00,
2013-03-07 05:48:00,34.7,10.4,29.81,WNW,299,0.0,10.0,36,0.00,,,0.00,0.0,meteohub,2013-03-07 12:48:00,
2013-03-07 05:53:00,33.8,13.6,29.81,WNW,299,0.0,10.0,43,0.00,,,0.00,0.0,meteohub,2013-03-07 12:53:00,
2013-03-07 05:59:00,32.4,10.8,29.81,WNW,299,0.0,5.0,40,0.00,,,0.00,0.0,meteohub,2013-03-07 12:59:00,
2013-03-07 06:04:00,31.8,11.3,29.82,WNW,299,0.0,5.0,42,0.00,,,0.00,0.0,meteohub,2013-03-07 13:04:00,
2013-03-07 06:09:00,31.3,10.2,29.82,WNW,299,1.0,5.0,41,0.00,,,0.00,0.0,meteohub,2013-03-07 13:09:00,
2013-03-07 06:14:00,31.8,10.2,29.83,WNW,299,0.0,6.0,40,0.00,,,0.00,0.0,meteohub,2013-03-07 13:14:00,
2013-03-07 06:20:00,32.2,10.6,29.83,WNW,299,0.0,6.0,40,0.00,,,0.00,0.0,meteohub,2013-03-07 13:20:00,
2013-03-07 06:25:00,32.0,9.3,29.83,WNW,299,2.0,5.0,38,0.00,,,0.00,0.0,meteohub,2013-03-07 13:25:00,
2013-03-07 06:30:00,32.4,9.5,29.83,WNW,299,1.0,5.0,38,0.00,,,0.00,0.0,meteohub,2013-03-07 13:30:00,
2013-03-07 06:35:00,33.6,10.0,29.84,WNW,299,5.0,5.0,37,0.00,,,0.00,7.0,meteohub,2013-03-07 13:35:00,
2013-03-07 06:40:00,34.5,9.0,29.84,WNW,299,0.0,7.0,34,0.00,,,0.00,12.0,meteohub,2013-03-07 13:40:00,
2013-03-07 06:46:00,35.2,8.2,29.84,WNW,299,0.0,7.0,32,0.00,,,0.00,18.0,meteohub,2013-03-07 13:46:00,
2013-03-07 06:51:00,36.0,9.0,29.85,WNW,298,5.0,7.0,32,0.00,,,0.00,25.0,meteohub,2013-03-07 13:51:00,
2013-03-07 06:56:00,36.5,8.1,29.84,NW,318,4.0,13.0,30,0.00,,,0.00,28.0,meteohub,2013-03-07 13:56:00,
2013-03-07 07:01:00,37.2,7.9,29.86,NW,322,7.0,13.0,29,0.00,,,0.00,33.0,meteohub,2013-03-07 14:01:00,
2013-03-07 07:07:00,37.8,8.4,29.86,WNW,301,8.0,13.0,29,0.00,,,0.00,39.0,meteohub,2013-03-07 14:07:00,
2013-03-07 07:12:00,38.3,8.1,29.86,WNW,295,4.0,12.0,28,0.00,,,0.00,47.0,meteohub,2013-03-07 14:12:00,
2013-03-07 07:18:00,38.3,9.5,29.87,WNW,295,2.0,14.0,30,0.00,,,0.00,56.0,meteohub,2013-03-07 14:18:00,
2013-03-07 07:23:00,37.8,9.9,29.87,WNW,295,1.0,14.0,31,0.00,,,0.00,60.0,meteohub,2013-03-07 14:23:00,
2013-03-07 07:28:00,37.9,7.7,29.87,NNW,337,1.0,5.0,28,0.00,,,0.00,58.0,meteohub,2013-03-07 14:28:00,
2013-03-07 07:34:00,38.5,8.2,29.87,NNW,337,0.0,12.0,28,0.00,,,0.00,58.0,meteohub,2013-03-07 14:34:00,
2013-03-07 07:39:00,38.8,9.3,29.87,WNW,284,8.0,12.0,29,0.00,,,0.00,62.0,meteohub,2013-03-07 14:39:00,
2013-03-07 07:44:00,39.2,8.1,29.88,WNW,299,1.0,7.0,27,0.00,,,0.00,65.0,meteohub,2013-03-07 14:44:00,
2013-03-07 07:49:00,39.6,7.5,29.88,NW,309,0.0,13.0,26,0.00,,,0.00,69.0,meteohub,2013-03-07 14:49:00,
2013-03-07 07:55:00,39.6,9.9,29.88,WNW,292,6.0,13.0,29,0.00,,,0.00,74.0,meteohub,2013-03-07 14:55:00,
2013-03-07 08:00:00,39.4,9.0,29.88,WNW,297,0.0,11.0,28,0.00,,,0.00,79.0,meteohub,2013-03-07 15:00:00,
2013-03-07 08:05:00,39.6,9.1,29.89,WNW,297,3.0,11.0,28,0.00,,,0.00,86.0,meteohub,2013-03-07 15:05:00,
2013-03-07 08:10:00,39.6,8.2,29.89,WNW,297,5.0,11.0,27,0.00,,,0.00,97.0,meteohub,2013-03-07 15:10:00,
2013-03-07 08:16:00,39.7,9.3,29.89,WNW,297,8.0,8.0,28,0.00,,,0.00,127.0,meteohub,2013-03-07 15:16:00,
2013-03-07 08:21:00,39.9,8.6,29.89,NW,322,5.0,11.0,27,0.00,,,0.00,105.0,meteohub,2013-03-07 15:21:00,
2013-03-07 08:26:00,39.9,8.6,29.89,NW,320,3.0,14.0,27,0.00,,,0.00,132.0,meteohub,2013-03-07 15:26:00,
2013-03-07 08:31:00,40.1,8.8,29.89,WNW,298,11.0,14.0,27,0.00,,,0.00,146.0,meteohub,2013-03-07 15:31:00,
2013-03-07 08:36:00,40.3,9.0,29.89,NW,322,6.0,15.0,27,0.00,,,0.00,118.0,meteohub,2013-03-07 15:36:00,
2013-03-07 08:42:00,40.5,9.9,29.89,WNW,290,5.0,15.0,28,0.00,,,0.00,90.0,meteohub,2013-03-07 15:42:00,
2013-03-07 08:47:00,40.6,8.4,29.89,WNW,294,0.0,14.0,26,0.00,,,0.00,95.0,meteohub,2013-03-07 15:47:00,
2013-03-07 08:52:00,41.0,8.8,29.89,NW,309,2.0,14.0,26,0.00,,,0.00,192.0,meteohub,2013-03-07 15:52:00,
2013-03-07 08:58:00,41.2,8.1,29.89,NW,310,14.0,14.0,25,0.00,,,0.00,91.0,meteohub,2013-03-07 15:58:00,
2013-03-07 09:03:00,40.8,7.7,29.89,NW,316,10.0,16.0,25,0.00,,,0.00,63.0,meteohub,2013-03-07 16:03:00,
2013-03-07 09:08:00,41.0,7.9,29.89,NW,316,11.0,21.0,25,0.00,,,0.00,65.0,meteohub,2013-03-07 16:08:00,
2013-03-07 09:13:00,41.4,7.3,29.89,NE,45,1.0,21.0,24,0.00,,,0.00,60.0,meteohub,2013-03-07 16:13:00,
2013-03-07 09:19:00,41.5,7.3,29.89,NE,44,0.0,18.0,24,0.00,,,0.00,98.0,meteohub,2013-03-07 16:19:00,
2013-03-07 09:24:00,41.7,6.6,29.88,NW,315,6.0,18.0,23,0.00,,,0.00,67.0,meteohub,2013-03-07 16:24:00,
2013-03-07 09:29:00,42.1,7.0,29.88,WNW,290,5.0,11.0,23,0.00,,,0.00,77.0,meteohub,2013-03-07 16:29:00,
2013-03-07 09:35:00,42.1,5.9,29.88,NW,311,6.0,11.0,22,0.00,,,0.00,74.0,meteohub,2013-03-07 16:35:00,
2013-03-07 09:40:00,42.4,7.2,29.88,NW,326,10.0,18.0,23,0.00,,,0.00,91.0,meteohub,2013-03-07 16:40:00,
2013-03-07 09:45:00,42.4,6.3,29.88,NW,325,2.0,15.0,22,0.00,,,0.00,93.0,meteohub,2013-03-07 16:45:00,
2013-03-07 09:51:00,42.6,7.3,29.88,NW,324,6.0,15.0,23,0.00,,,0.00,90.0,meteohub,2013-03-07 16:51:00,
2013-03-07 09:56:00,42.6,5.4,29.88,NNW,341,4.0,15.0,21,0.00,,,0.00,70.0,meteohub,2013-03-07 16:56:00,
2013-03-07 10:01:00,42.6,6.4,29.89,WNW,302,9.0,11.0,22,0.00,,,0.00,77.0,meteohub,2013-03-07 17:01:00,
2013-03-07 10:07:00,42.3,6.1,29.88,WNW,303,18.0,18.0,22,0.00,,,0.00,83.0,meteohub,2013-03-07 17:07:00,
2013-03-07 10:12:00,42.1,5.9,29.88,WNW,293,7.0,18.0,22,0.00,,,0.00,84.0,meteohub,2013-03-07 17:12:00,
2013-03-07 10:17:00,42.1,5.9,29.88,NW,320,10.0,19.0,22,0.00,,,0.00,105.0,meteohub,2013-03-07 17:17:00,
2013-03-07 10:23:00,42.6,7.3,29.88,NW,316,16.0,28.0,23,0.00,,,0.00,237.0,meteohub,2013-03-07 17:23:00,
2013-03-07 10:28:00,42.6,6.4,29.88,NW,324,9.0,28.0,22,0.00,,,0.00,160.0,meteohub,2013-03-07 17:28:00,
2013-03-07 10:33:00,42.6,6.4,29.88,NW,320,7.0,20.0,22,0.00,,,0.00,142.0,meteohub,2013-03-07 17:33:00,
2013-03-07 10:39:00,43.0,8.6,29.88,NNE,30,6.0,20.0,24,0.00,,,0.00,162.0,meteohub,2013-03-07 17:39:00,
2013-03-07 10:44:00,43.2,6.8,29.88,NW,321,7.0,18.0,22,0.00,,,0.00,186.0,meteohub,2013-03-07 17:44:00,
2013-03-07 10:49:00,43.0,7.7,29.88,NW,307,6.0,14.0,23,0.00,,,0.00,221.0,meteohub,2013-03-07 17:49:00,
2013-03-07 10:55:00,43.0,6.8,29.88,WNW,301,7.0,15.0,22,0.00,,,0.00,216.0,meteohub,2013-03-07 17:55:00,
2013-03-07 11:00:00,43.0,7.7,29.88,NW,307,7.0,16.0,23,0.00,,,0.00,232.0,meteohub,2013-03-07 18:00:00,
2013-03-07 11:05:00,42.8,7.5,29.88,WNW,287,2.0,20.0,23,0.00,,,0.00,236.0,meteohub,2013-03-07 18:05:00,
2013-03-07 11:10:00,43.0,7.7,29.88,NW,324,18.0,20.0,23,0.00,,,0.00,234.0,meteohub,2013-03-07 18:10:00,
2013-03-07 11:15:00,43.2,6.8,29.88,NW,326,13.0,20.0,22,0.00,,,0.00,237.0,meteohub,2013-03-07 18:15:00,
2013-03-07 11:21:00,43.3,7.0,29.88,NW,324,5.0,22.0,22,0.00,,,0.00,380.0,meteohub,2013-03-07 18:21:00,
2013-03-07 11:26:00,44.1,7.7,29.87,NNW,330,12.0,22.0,22,0.00,,,0.00,323.0,meteohub,2013-03-07 18:26:00,
2013-03-07 11:31:00,44.2,6.8,29.87,NNW,330,9.0,22.0,21,0.00,,,0.00,577.0,meteohub,2013-03-07 18:31:00,
2013-03-07 11:36:00,44.8,7.2,29.88,NW,309,14.0,25.0,21,0.00,,,0.00,457.0,meteohub,2013-03-07 18:36:00,
2013-03-07 11:42:00,45.0,6.3,29.88,WNW,285,4.0,25.0,20,0.00,,,0.00,548.0,meteohub,2013-03-07 18:42:00,
2013-03-07 11:47:00,45.1,6.4,29.88,NW,318,9.0,25.0,20,0.00,,,0.00,531.0,meteohub,2013-03-07 18:47:00,
2013-03-07 11:52:00,45.5,7.9,29.87,WNW,296,1.0,20.0,21,0.00,,,0.00,705.0,meteohub,2013-03-07 18:52:00,
2013-03-07 11:57:00,45.9,10.2,29.87,South,185,1.0,15.0,23,0.00,,,0.00,559.0,meteohub,2013-03-07 18:57:00,
2013-03-07 12:02:00,46.0,10.2,29.87,South,185,2.0,14.0,23,0.00,,,0.00,427.0,meteohub,2013-03-07 19:02:00,
2013-03-07 12:07:00,46.0,11.3,29.87,WNW,285,1.0,10.0,24,0.00,,,0.00,589.0,meteohub,2013-03-07 19:07:00,
2013-03-07 12:13:00,46.2,12.4,29.86,WNW,284,2.0,9.0,25,0.00,,,0.00,670.0,meteohub,2013-03-07 19:13:00,
2013-03-07 12:18:00,46.6,12.6,29.86,SSW,196,1.0,9.0,25,0.00,,,0.00,682.0,meteohub,2013-03-07 19:18:00,
2013-03-07 12:23:00,46.9,11.1,29.86,West,267,1.0,8.0,23,0.00,,,0.00,483.0,meteohub,2013-03-07 19:23:00,
2013-03-07 12:28:00,46.8,11.8,29.86,South,180,1.0,7.0,24,0.00,,,0.00,473.0,meteohub,2013-03-07 19:28:00,
2013-03-07 12:34:00,46.6,11.7,29.85,SW,226,1.0,7.0,24,0.00,,,0.00,635.0,meteohub,2013-03-07 19:34:00,
2013-03-07 12:39:00,46.8,11.8,29.85,WNW,303,2.0,7.0,24,0.00,,,0.00,578.0,meteohub,2013-03-07 19:39:00,
2013-03-07 12:44:00,46.9,12.0,29.85,WSW,252,0.0,10.0,24,0.00,,,0.00,504.0,meteohub,2013-03-07 19:44:00,
2013-03-07 12:50:00,46.9,12.0,29.84,SSE,158,0.0,10.0,24,0.00,,,0.00,573.0,meteohub,2013-03-07 19:50:00,
2013-03-07 12:55:00,47.1,13.1,29.84,WSW,254,1.0,8.0,25,0.00,,,0.00,670.0,meteohub,2013-03-07 19:55:00,
2013-03-07 13:00:00,47.1,13.1,29.84,SSE,164,3.0,8.0,25,0.00,,,0.00,552.0,meteohub,2013-03-07 20:00:00,
2013-03-07 13:06:00,46.9,14.7,29.84,South,175,4.0,7.0,27,0.00,,,0.00,490.0,meteohub,2013-03-07 20:06:00,
2013-03-07 13:11:00,46.6,14.4,29.83,NW,308,1.0,7.0,27,0.00,,,0.00,457.0,meteohub,2013-03-07 20:11:00,
2013-03-07 13:16:00,46.8,16.2,29.83,SSW,211,1.0,10.0,29,0.00,,,0.00,501.0,meteohub,2013-03-07 20:16:00,
2013-03-07 13:22:00,46.8,16.2,29.83,SW,220,4.0,10.0,29,0.00,,,0.00,547.0,meteohub,2013-03-07 20:22:00,
2013-03-07 13:27:00,46.6,16.0,29.83,West,266,4.0,11.0,29,0.00,,,0.00,490.0,meteohub,2013-03-07 20:27:00,
2013-03-07 13:32:00,46.2,14.0,29.83,South,180,4.0,11.0,27,0.00,,,0.00,410.0,meteohub,2013-03-07 20:32:00,
2013-03-07 13:38:00,45.5,13.5,29.83,SSW,198,2.0,12.0,27,0.00,,,0.00,411.0,meteohub,2013-03-07 20:38:00,
2013-03-07 13:43:00,45.3,14.9,29.83,South,170,1.0,12.0,29,0.00,,,0.00,297.0,meteohub,2013-03-07 20:43:00,
2013-03-07 13:48:00,45.1,14.0,29.83,South,185,0.0,12.0,28,0.00,,,0.00,306.0,meteohub,2013-03-07 20:48:00,
2013-03-07 13:53:00,44.8,12.7,29.83,SSE,164,2.0,10.0,27,0.00,,,0.00,404.0,meteohub,2013-03-07 20:53:00,
2013-03-07 13:59:00,44.8,10.2,29.83,West,278,0.0,7.0,24,0.00,,,0.00,455.0,meteohub,2013-03-07 20:59:00,
2013-03-07 14:04:00,45.1,9.5,29.83,SSE,148,1.0,8.0,23,0.00,,,0.00,566.0,meteohub,2013-03-07 21:04:00,
2013-03-07 14:09:00,45.9,11.1,29.83,South,170,0.0,8.0,24,0.00,,,0.00,548.0,meteohub,2013-03-07 21:09:00,
2013-03-07 14:15:00,46.0,14.0,29.83,South,175,5.0,8.0,27,0.00,,,0.00,596.0,meteohub,2013-03-07 21:15:00,
2013-03-07 14:20:00,46.2,12.4,29.83,WNW,289,5.0,9.0,25,0.00,,,0.00,594.0,meteohub,2013-03-07 21:20:00,
2013-03-07 14:25:00,46.4,12.6,29.83,SE,135,8.0,9.0,25,0.00,,,0.00,635.0,meteohub,2013-03-07 21:25:00,
2013-03-07 14:30:00,46.4,12.6,29.83,South,189,2.0,8.0,25,0.00,,,0.00,603.0,meteohub,2013-03-07 21:30:00,
2013-03-07 14:36:00,46.6,11.7,29.83,SSE,164,7.0,8.0,24,0.00,,,0.00,566.0,meteohub,2013-03-07 21:36:00,
2013-03-07 14:41:00,46.2,11.5,29.83,South,180,1.0,8.0,24,0.00,,,0.00,568.0,meteohub,2013-03-07 21:41:00,
2013-03-07 14:46:00,46.6,11.7,29.83,West,277,4.0,8.0,24,0.00,,,0.00,564.0,meteohub,2013-03-07 21:46:00,
2013-03-07 14:52:00,46.9,11.1,29.83,West,274,0.0,8.0,23,0.00,,,0.00,541.0,meteohub,2013-03-07 21:52:00,
2013-03-07 14:57:00,46.9,12.0,29.83,WNW,291,2.0,8.0,24,0.00,,,0.00,522.0,meteohub,2013-03-07 21:57:00,
2013-03-07 15:02:00,46.9,12.0,29.83,SW,219,5.0,10.0,24,0.00,,,0.00,508.0,meteohub,2013-03-07 22:02:00,
2013-03-07 15:08:00,46.9,12.0,29.83,SW,214,1.0,10.0,24,0.00,,,0.00,492.0,meteohub,2013-03-07 22:08:00,
2013-03-07 15:13:00,46.9,12.9,29.83,NW,311,1.0,10.0,25,0.00,,,0.00,475.0,meteohub,2013-03-07 22:13:00,
2013-03-07 15:18:00,47.1,12.2,29.83,South,170,2.0,7.0,24,0.00,,,0.00,461.0,meteohub,2013-03-07 22:18:00,
2013-03-07 15:23:00,47.1,13.1,29.84,South,175,4.0,7.0,25,0.00,,,0.00,443.0,meteohub,2013-03-07 22:23:00,
2013-03-07 15:28:00,47.3,14.2,29.84,West,262,1.0,7.0,26,0.00,,,0.00,427.0,meteohub,2013-03-07 22:28:00,
2013-03-07 15:34:00,47.3,15.1,29.84,WNW,296,1.0,6.0,27,0.00,,,0.00,410.0,meteohub,2013-03-07 22:34:00,
2013-03-07 15:39:00,47.1,14.9,29.84,SSW,193,0.0,9.0,27,0.00,,,0.00,394.0,meteohub,2013-03-07 22:39:00,
2013-03-07 15:44:00,46.9,14.7,29.84,South,175,0.0,9.0,27,0.00,,,0.00,378.0,meteohub,2013-03-07 22:44:00,
2013-03-07 15:49:00,46.6,16.0,29.84,South,175,0.0,9.0,29,0.00,,,0.00,359.0,meteohub,2013-03-07 22:49:00,
2013-03-07 15:55:00,46.2,17.2,29.84,WSW,243,0.0,9.0,31,0.00,,,0.00,341.0,meteohub,2013-03-07 22:55:00,
2013-03-07 16:00:00,46.2,16.5,29.84,West,266,5.0,9.0,30,0.00,,,0.00,325.0,meteohub,2013-03-07 23:00:00,
2013-03-07 16:05:00,46.2,15.6,29.83,WNW,295,6.0,8.0,29,0.00,,,0.00,309.0,meteohub,2013-03-07 23:05:00,
2013-03-07 16:10:00,46.0,17.1,29.84,West,272,1.0,7.0,31,0.00,,,0.00,292.0,meteohub,2013-03-07 23:10:00,
2013-03-07 16:15:00,46.2,17.2,29.84,West,271,1.0,7.0,31,0.00,,,0.00,274.0,meteohub,2013-03-07 23:15:00,
2013-03-07 16:21:00,45.9,18.3,29.84,SSW,203,2.0,7.0,33,0.00,,,0.00,251.0,meteohub,2013-03-07 23:21:00,
2013-03-07 16:26:00,45.7,18.1,29.84,South,191,1.0,6.0,33,0.00,,,0.00,232.0,meteohub,2013-03-07 23:26:00,
2013-03-07 16:31:00,45.1,17.1,29.85,SSE,166,1.0,6.0,32,0.00,,,0.00,213.0,meteohub,2013-03-07 23:31:00,
2013-03-07 16:36:00,44.4,17.8,29.85,SSE,166,5.0,6.0,34,0.00,,,0.00,192.0,meteohub,2013-03-07 23:36:00,
2013-03-07 16:42:00,44.1,17.4,29.85,SSE,168,6.0,8.0,34,0.00,,,0.00,171.0,meteohub,2013-03-07 23:42:00,
2013-03-07 16:47:00,43.7,17.2,29.85,SE,129,2.0,8.0,34,0.00,,,0.00,149.0,meteohub,2013-03-07 23:47:00,
2013-03-07 16:52:00,43.3,18.9,29.85,SE,134,1.0,8.0,37,0.00,,,0.00,130.0,meteohub,2013-03-07 23:52:00,
2013-03-07 16:57:00,43.0,18.5,29.86,SE,134,4.0,8.0,37,0.00,,,0.00,130.0,meteohub,2013-03-07 23:57:00,
2013-03-07 17:02:00,42.4,18.0,29.86,North,-999,-999.0,6.0,37,0.00,,,0.00,88.0,meteohub,2013-03-08 00:02:00,
2013-03-07 17:07:00,42.1,18.3,29.86,South,175,2.0,6.0,38,0.00,,,0.00,33.0,meteohub,2013-03-08 00:07:00,
2013-03-07 17:13:00,41.7,18.5,29.86,South,175,2.0,5.0,39,0.00,,,0.00,28.0,meteohub,2013-03-08 00:13:00,
2013-03-07 17:18:00,41.5,17.8,29.87,South,175,1.0,5.0,38,0.00,,,0.00,23.0,meteohub,2013-03-08 00:18:00,
2013-03-07 17:23:00,41.4,18.3,29.87,South,175,0.0,5.0,39,0.00,,,0.00,19.0,meteohub,2013-03-08 00:23:00,
2013-03-07 17:28:00,41.2,18.1,29.87,South,175,0.0,5.0,39,0.00,,,0.00,16.0,meteohub,2013-03-08 00:28:00,
2013-03-07 17:34:00,40.8,17.8,29.87,South,175,0.0,2.0,39,0.00,,,0.00,14.0,meteohub,2013-03-08 00:34:00,
2013-03-07 17:39:00,40.5,18.7,29.87,South,175,0.0,1.0,41,0.00,,,0.00,12.0,meteohub,2013-03-08 00:39:00,
2013-03-07 17:44:00,39.6,20.5,29.87,South,175,2.0,2.0,46,0.00,,,0.00,11.0,meteohub,2013-03-08 00:44:00,
2013-03-07 17:49:00,37.9,19.6,29.88,South,175,4.0,4.0,47,0.00,,,0.00,7.0,meteohub,2013-03-08 00:49:00,
2013-03-07 17:55:00,37.0,18.7,29.88,SSW,195,4.0,5.0,47,0.00,,,0.00,5.0,meteohub,2013-03-08 00:55:00,
2013-03-07 18:00:00,36.1,19.2,29.88,SSW,201,4.0,5.0,50,0.00,,,0.00,0.0,meteohub,2013-03-08 01:00:00,
2013-03-07 18:05:00,35.2,20.3,29.88,SSW,202,5.0,5.0,54,0.00,,,0.00,0.0,meteohub,2013-03-08 01:05:00,
2013-03-07 18:11:00,34.5,19.2,29.88,SW,222,5.0,5.0,53,0.00,,,0.00,0.0,meteohub,2013-03-08 01:11:00,
2013-03-07 18:16:00,34.2,18.9,29.88,SW,225,5.0,6.0,53,0.00,,,0.00,0.0,meteohub,2013-03-08 01:16:00,
2013-03-07 18:21:00,33.6,18.7,29.88,SW,235,5.0,6.0,54,0.00,,,0.00,0.0,meteohub,2013-03-08 01:21:00,
2013-03-07 18:26:00,33.3,18.5,29.88,SW,235,5.0,6.0,54,0.00,,,0.00,0.0,meteohub,2013-03-08 01:26:00,
2013-03-07 18:31:00,32.9,18.5,29.88,WNW,291,6.0,7.0,55,0.00,,,0.00,0.0,meteohub,2013-03-08 01:31:00,
2013-03-07 18:37:00,32.5,18.5,29.88,WNW,292,5.0,7.0,56,0.00,,,0.00,0.0,meteohub,2013-03-08 01:37:00,
2013-03-07 18:42:00,32.4,18.5,29.88,WNW,292,3.0,7.0,56,0.00,,,0.00,0.0,meteohub,2013-03-08 01:42:00,
2013-03-07 18:47:00,32.4,18.9,29.89,WNW,292,1.0,7.0,57,0.00,,,0.00,0.0,meteohub,2013-03-08 01:47:00,
2013-03-07 18:52:00,32.0,19.8,29.89,WNW,292,0.0,6.0,60,0.00,,,0.00,0.0,meteohub,2013-03-08 01:52:00,
2013-03-07 18:58:00,31.6,17.8,29.89,WNW,292,4.0,5.0,56,0.00,,,0.00,0.0,meteohub,2013-03-08 01:58:00,
2013-03-07 19:03:00,31.6,17.2,29.89,WNW,298,7.0,7.0,55,0.00,,,0.00,0.0,meteohub,2013-03-08 02:03:00,
2013-03-07 19:08:00,32.2,17.8,29.89,NW,304,4.0,8.0,55,0.00,,,0.00,0.0,meteohub,2013-03-08 02:08:00,
2013-03-07 19:13:00,32.5,16.9,29.89,NW,304,6.0,8.0,52,0.00,,,0.00,0.0,meteohub,2013-03-08 02:13:00,
2013-03-07 19:19:00,32.5,16.9,29.89,NW,304,6.0,8.0,52,0.00,,,0.00,0.0,meteohub,2013-03-08 02:19:00,
2013-03-07 19:24:00,32.7,16.5,29.89,NW,304,5.0,7.0,51,0.00,,,0.00,0.0,meteohub,2013-03-08 02:24:00,
2013-03-07 19:29:00,32.7,16.2,29.89,NW,304,5.0,7.0,50,0.00,,,0.00,0.0,meteohub,2013-03-08 02:29:00,
2013-03-07 19:34:00,32.7,15.6,29.89,NW,304,4.0,7.0,49,0.00,,,0.00,0.0,meteohub,2013-03-08 02:34:00,
2013-03-07 19:40:00,32.7,15.3,29.89,NW,304,7.0,8.0,48,0.00,,,0.00,0.0,meteohub,2013-03-08 02:40:00,
2013-03-07 19:45:00,33.1,15.4,29.89,NW,309,5.0,8.0,48,0.00,,,0.00,0.0,meteohub,2013-03-08 02:45:00,
2013-03-07 19:50:00,33.1,15.4,29.89,NW,309,2.0,8.0,48,0.00,,,0.00,0.0,meteohub,2013-03-08 02:50:00,
2013-03-07 19:55:00,33.1,15.4,29.89,NW,309,0.0,8.0,48,0.00,,,0.00,0.0,meteohub,2013-03-08 02:55:00,
2013-03-07 20:01:00,32.5,15.4,29.89,NW,309,0.0,7.0,49,0.00,,,0.00,0.0,meteohub,2013-03-08 03:01:00,
2013-03-07 20:06:00,32.0,16.0,29.90,NW,309,0.0,6.0,51,0.00,,,0.00,0.0,meteohub,2013-03-08 03:06:00,
2013-03-07 20:11:00,31.5,14.9,29.90,NW,309,1.0,2.0,50,0.00,,,0.00,0.0,meteohub,2013-03-08 03:11:00,
2013-03-07 20:16:00,30.9,14.9,29.90,NW,309,4.0,4.0,51,0.00,,,0.00,0.0,meteohub,2013-03-08 03:16:00,
2013-03-07 20:22:00,30.4,14.0,29.90,NW,309,5.0,5.0,50,0.00,,,0.00,0.0,meteohub,2013-03-08 03:22:00,
2013-03-07 20:27:00,30.4,13.1,29.90,NW,309,5.0,7.0,48,0.00,,,0.00,0.0,meteohub,2013-03-08 03:27:00,
2013-03-07 20:32:00,30.0,13.1,29.90,NW,309,7.0,7.0,49,0.00,,,0.00,0.0,meteohub,2013-03-08 03:32:00,
2013-03-07 20:37:00,29.8,13.5,29.90,NW,309,6.0,8.0,50,0.00,,,0.00,0.0,meteohub,2013-03-08 03:37:00,
2013-03-07 20:43:00,29.7,12.4,29.90,NW,309,5.0,8.0,48,0.00,,,0.00,0.0,meteohub,2013-03-08 03:43:00,
2013-03-07 20:48:00,29.7,12.4,29.91,NW,309,6.0,8.0,48,0.00,,,0.00,0.0,meteohub,2013-03-08 03:48:00,
2013-03-07 20:53:00,29.7,12.9,29.91,NW,309,4.0,7.0,49,0.00,,,0.00,0.0,meteohub,2013-03-08 03:53:00,
2013-03-07 20:58:00,29.5,13.1,29.91,NW,309,5.0,7.0,50,0.00,,,0.00,0.0,meteohub,2013-03-08 03:58:00,
2013-03-07 21:04:00,28.8,12.4,29.91,NW,309,0.0,7.0,50,0.00,,,0.00,0.0,meteohub,2013-03-08 04:04:00,
2013-03-07 21:09:00,28.2,14.2,29.91,NW,309,0.0,6.0,55,0.00,,,0.00,0.0,meteohub,2013-03-08 04:09:00,
2013-03-07 21:14:00,27.9,13.5,29.91,NW,309,6.0,6.0,54,0.00,,,0.00,0.0,meteohub,2013-03-08 04:14:00,
2013-03-07 21:19:00,28.0,14.0,29.91,NW,309,6.0,7.0,55,0.00,,,0.00,0.0,meteohub,2013-03-08 04:19:00,
2013-03-07 21:25:00,28.0,14.4,29.91,NW,309,4.0,7.0,56,0.00,,,0.00,0.0,meteohub,2013-03-08 04:25:00,
2013-03-07 21:30:00,28.6,14.0,29.91,NW,309,4.0,7.0,54,0.00,,,0.00,0.0,meteohub,2013-03-08 04:30:00,
2013-03-07 21:35:00,29.5,13.6,29.91,NW,309,5.0,7.0,51,0.00,,,0.00,0.0,meteohub,2013-03-08 04:35:00,
2013-03-07 21:40:00,29.7,13.8,29.91,NW,309,4.0,7.0,51,0.00,,,0.00,0.0,meteohub,2013-03-08 04:40:00,
2013-03-07 21:45:00,29.5,13.1,29.91,NW,309,6.0,7.0,50,0.00,,,0.00,0.0,meteohub,2013-03-08 04:45:00,
2013-03-07 21:51:00,29.5,12.7,29.91,NW,309,8.0,8.0,49,0.00,,,0.00,0.0,meteohub,2013-03-08 04:51:00,
2013-03-07 21:56:00,29.5,12.7,29.91,NW,309,6.0,8.0,49,0.00,,,0.00,0.0,meteohub,2013-03-08 04:56:00,
2013-03-07 22:00:00,29.7,11.8,29.91,NW,309,5.0,8.0,47,0.00,,,0.00,0.0,meteohub,2013-03-08 05:00:00,
2013-03-07 22:01:00,29.7,11.5,29.91,NW,309,5.0,8.0,46,0.00,,,0.00,0.0,meteohub,2013-03-08 05:01:00,
2013-03-07 22:02:00,29.7,11.5,29.91,NW,309,6.0,8.0,46,0.00,,,0.00,0.0,meteohub,2013-03-08 05:02:00,
2013-03-07 22:07:00,30.0,10.2,29.91,NW,314,8.0,8.0,43,0.00,,,0.00,0.0,meteohub,2013-03-08 05:07:00,
2013-03-07 22:12:00,30.6,9.1,29.91,NW,318,6.0,8.0,40,0.00,,,0.00,0.0,meteohub,2013-03-08 05:12:00,
2013-03-07 22:17:00,30.6,8.6,29.91,NW,318,5.0,10.0,39,0.00,,,0.00,0.0,meteohub,2013-03-08 05:17:00,
2013-03-07 22:22:00,30.4,7.9,29.91,NW,318,2.0,10.0,38,0.00,,,0.00,0.0,meteohub,2013-03-08 05:22:00,
2013-03-07 22:28:00,29.8,7.9,29.91,NW,318,4.0,9.0,39,0.00,,,0.00,0.0,meteohub,2013-03-08 05:28:00,
2013-03-07 22:33:00,29.8,6.8,29.91,NW,318,5.0,7.0,37,0.00,,,0.00,0.0,meteohub,2013-03-08 05:33:00,
2013-03-07 22:38:00,29.8,6.8,29.91,NW,318,5.0,7.0,37,0.00,,,0.00,0.0,meteohub,2013-03-08 05:38:00,
2013-03-07 22:43:00,29.8,6.1,29.91,North,-999,-999.0,7.0,36,0.00,,,0.00,0.0,meteohub,2013-03-08 05:43:00,
2013-03-07 22:49:00,29.8,7.9,29.91,NW,318,0.0,6.0,39,0.00,,,0.00,0.0,meteohub,2013-03-08 05:49:00,
2013-03-07 22:54:00,29.7,7.7,29.91,NW,318,0.0,6.0,39,0.00,,,0.00,0.0,meteohub,2013-03-08 05:54:00,
2013-03-07 22:59:00,29.3,6.8,29.91,NW,318,0.0,6.0,38,0.00,,,0.00,0.0,meteohub,2013-03-08 05:59:00,
2013-03-07 23:04:00,28.9,7.2,29.91,NW,318,0.0,6.0,39,0.00,,,0.00,0.0,meteohub,2013-03-08 06:04:00,
2013-03-07 23:09:00,28.8,5.7,29.91,NW,318,0.0,2.0,37,0.00,,,0.00,0.0,meteohub,2013-03-08 06:09:00,
2013-03-07 23:15:00,28.2,8.6,29.91,NW,318,1.0,0.0,43,0.00,,,0.00,0.0,meteohub,2013-03-08 06:15:00,
2013-03-07 23:20:00,28.6,8.4,29.91,NW,318,5.0,11.0,42,0.00,,,0.00,0.0,meteohub,2013-03-08 06:20:00,
2013-03-07 23:25:00,28.4,6.6,29.91,WNW,303,9.0,11.0,39,0.00,,,0.00,0.0,meteohub,2013-03-08 06:25:00,
2013-03-07 23:30:00,30.0,5.7,29.91,NW,308,8.0,13.0,35,0.00,,,0.00,0.0,meteohub,2013-03-08 06:30:00,
2013-03-07 23:36:00,30.0,5.7,29.91,NW,311,8.0,13.0,35,0.00,,,0.00,0.0,meteohub,2013-03-08 06:36:00,
2013-03-07 23:41:00,30.6,5.5,29.91,NW,322,6.0,13.0,34,0.00,,,0.00,0.0,meteohub,2013-03-08 06:41:00,
2013-03-07 23:46:00,30.4,6.6,29.91,NW,322,6.0,13.0,36,0.00,,,0.00,0.0,meteohub,2013-03-08 06:46:00,
2013-03-07 23:51:00,30.0,6.3,29.91,NW,322,5.0,13.0,36,0.00,,,0.00,0.0,meteohub,2013-03-08 06:51:00,
2013-03-07 23:56:00,29.8,7.3,29.91,NW,322,5.0,8.0,38,0.00,,,0.00,0.0,meteohub,2013-03-08 06:56:00,